Time;durP1;ratioP1;P1;durP2;ratioP2;P2;SDS_P1;SDS_P2;PMS_P1;PMS_P2;Temp;Humidity;BMP_temperature;BMP_pressure;BME280_temperature;BME280_humidity;BME280_pressure;Samples;Min_cycle;Max_cycle;Signal;HPM_P1;HPM_P2
2020/12/03 00:02:25;;;;;;;18.30;9.10;;;;;12.80;100633.00;;;;5108381;28;20190;-77
2020/12/03 00:04:52;;;;;;;15.27;8.48;;;;;12.70;100635.00;;;;5096146;28;20197;-77
2020/12/03 00:07:19;;;;;;;14.05;8.68;;;;;12.70;100630.00;;;;5096568;28;20221;-77
2020/12/03 00:09:45;;;;;;;15.15;8.68;;;;;12.70;100621.00;;;;5088885;28;20205;-77
2020/12/03 00:12:13;;;;;;;17.35;9.07;;;;;12.70;100615.00;;;;5089865;28;20187;-78
2020/12/03 00:14:39;;;;;;;13.63;7.53;;;;;12.70;100604.00;;;;5088978;28;20187;-77
2020/12/03 00:17:07;;;;;;;15.38;8.85;;;;;12.60;100605.00;;;;5076507;28;20579;-77
2020/12/03 00:19:34;;;;;;;17.50;9.57;;;;;12.60;100596.00;;;;5089478;28;20205;-77
2020/12/03 00:22:02;;;;;;;14.82;9.10;;;;;12.60;100590.00;;;;5096686;28;20724;-76
2020/12/03 00:24:32;;;;;;;15.90;8.73;;;;;12.60;100591.00;;;;5091943;28;20190;-77
2020/12/03 00:27:07;;;;;;;14.98;9.02;;;;;12.50;100583.00;;;;5099266;28;20222;-77
2020/12/03 00:29:34;;;;;;;14.90;7.90;;;;;12.60;100577.00;;;;5078400;28;20186;-77
2020/12/03 00:32:01;;;;;;;13.27;7.80;;;;;12.60;100576.00;;;;5105360;28;20201;-77
2020/12/03 00:34:28;;;;;;;17.38;8.68;;;;;12.50;100560.00;;;;5085492;28;20879;-77
2020/12/03 00:36:55;;;;;;;15.25;8.48;;;;;12.50;100560.00;;;;5099598;28;20200;-77
2020/12/03 00:39:22;;;;;;;14.07;7.03;;;;;12.50;100549.00;;;;5090942;28;20182;-76
2020/12/03 00:41:51;;;;;;;19.70;9.25;;;;;12.50;100544.00;;;;5093444;28;20197;-75
2020/12/03 00:44:18;;;;;;;12.30;8.55;;;;;12.50;100541.00;;;;5101778;28;20224;-77
2020/12/03 00:46:46;;;;;;;13.95;8.25;;;;;12.50;100539.00;;;;5100282;28;20228;-76
2020/12/03 00:49:14;;;;;;;14.15;7.82;;;;;12.40;100541.00;;;;5090151;28;20225;-76
2020/12/03 00:51:42;;;;;;;15.45;8.25;;;;;12.40;100531.00;;;;5089341;28;20205;-76
2020/12/03 00:54:09;;;;;;;17.10;8.27;;;;;12.40;100528.00;;;;5101392;28;20248;-76
2020/12/03 00:56:36;;;;;;;17.13;8.15;;;;;12.40;100517.00;;;;5094019;28;20199;-76
2020/12/03 00:59:03;;;;;;;15.50;8.57;;;;;12.40;100512.00;;;;5101184;28;20691;-76
2020/12/03 01:01:30;;;;;;;16.10;9.18;;;;;12.40;100523.00;;;;5093015;28;20198;-76
2020/12/03 01:03:57;;;;;;;16.48;8.65;;;;;12.40;100516.00;;;;5091054;28;20210;-76
2020/12/03 01:06:24;;;;;;;16.13;9.02;;;;;12.40;100515.00;;;;5099972;28;20583;-76
2020/12/03 01:08:51;;;;;;;15.35;7.95;;;;;12.30;100505.00;;;;5102275;28;20194;-76
2020/12/03 01:11:19;;;;;;;13.90;7.93;;;;;12.30;100507.00;;;;5094480;28;20190;-76
2020/12/03 01:13:46;;;;;;;15.88;7.85;;;;;12.30;100503.00;;;;5087540;28;20198;-76
2020/12/03 01:16:14;;;;;;;16.58;7.15;;;;;12.30;100498.00;;;;5086185;28;20572;-77
2020/12/03 01:18:41;;;;;;;16.27;8.27;;;;;12.30;100498.00;;;;5094659;28;21028;-76
2020/12/03 01:21:07;;;;;;;16.55;7.95;;;;;12.30;100490.00;;;;5098843;28;20199;-77
2020/12/03 01:23:34;;;;;;;13.23;8.15;;;;;12.30;100482.00;;;;5087834;28;20564;-77
2020/12/03 01:26:01;;;;;;;12.77;7.18;;;;;12.30;100484.00;;;;5085891;28;20214;-76
2020/12/03 01:28:28;;;;;;;15.65;8.43;;;;;12.30;100476.00;;;;5085201;28;20226;-76
2020/12/03 01:30:55;;;;;;;14.32;8.40;;;;;12.30;100458.00;;;;5096139;28;20205;-76
2020/12/03 01:33:22;;;;;;;17.35;8.77;;;;;12.30;100460.00;;;;5085606;28;20202;-76
2020/12/03 01:35:48;;;;;;;18.17;8.98;;;;;12.30;100459.00;;;;5095934;28;20200;-76
2020/12/03 01:38:15;;;;;;;12.80;7.85;;;;;12.20;100460.00;;;;5094820;28;20272;-76
2020/12/03 01:40:49;;;;;;;16.15;8.57;;;;;12.20;100458.00;;;;5089456;28;20690;-77
2020/12/03 01:43:16;;;;;;;15.25;8.27;;;;;12.20;100462.00;;;;5104883;28;20197;-76
2020/12/03 01:46:04;;;;;;;14.70;7.32;;;;;12.10;100463.00;;;;5089478;28;20193;-77
2020/12/03 01:48:35;;;;;;;13.13;7.43;;;;;12.20;100459.00;;;;5085002;28;20650;-76
2020/12/03 01:51:05;;;;;;;13.98;8.45;;;;;12.10;100462.00;;;;5111844;28;20224;-76
2020/12/03 01:53:31;;;;;;;12.07;7.35;;;;;12.10;100469.00;;;;5109737;28;20201;-76
2020/12/03 01:56:05;;;;;;;13.25;8.00;;;;;12.10;100461.00;;;;5092895;28;20193;-76
2020/12/03 01:58:42;;;;;;;14.13;7.63;;;;;12.00;100457.00;;;;5089876;28;20226;-76
2020/12/03 02:01:10;;;;;;;13.50;7.93;;;;;12.10;100463.00;;;;5110896;28;20200;-76
2020/12/03 02:03:46;;;;;;;16.80;8.00;;;;;12.00;100463.00;;;;5097944;28;20190;-76
2020/12/03 02:06:17;;;;;;;11.10;6.25;;;;;12.00;100451.00;;;;5101832;28;20235;-76
2020/12/03 02:08:43;;;;;;;14.30;7.82;;;;;12.00;100450.00;;;;5096005;28;20225;-76
2020/12/03 02:11:10;;;;;;;11.73;7.47;;;;;12.00;100444.00;;;;5100713;28;20193;-76
2020/12/03 02:13:38;;;;;;;12.02;6.95;;;;;12.00;100446.00;;;;5086060;28;20194;-76
2020/12/03 02:16:05;;;;;;;13.82;6.95;;;;;12.00;100436.00;;;;5098795;28;20204;-76
2020/12/03 02:18:32;;;;;;;11.32;7.10;;;;;12.00;100433.00;;;;5091290;28;20209;-76
2020/12/03 02:20:59;;;;;;;12.10;6.45;;;;;12.10;100429.00;;;;5095562;28;20213;-76
2020/12/03 02:23:26;;;;;;;13.68;6.82;;;;;12.10;100428.00;;;;5100699;28;20197;-77
2020/12/03 02:25:53;;;;;;;15.18;6.68;;;;;12.10;100428.00;;;;5094517;28;20187;-77
2020/12/03 02:28:19;;;;;;;17.52;6.95;;;;;12.10;100413.00;;;;5091424;28;20355;-76
2020/12/03 02:30:46;;;;;;;15.02;7.03;;;;;12.10;100412.00;;;;5090501;28;20201;-76
2020/12/03 02:33:13;;;;;;;11.32;6.70;;;;;12.10;100398.00;;;;5090617;28;20194;-77
2020/12/03 02:35:40;;;;;;;12.80;6.00;;;;;12.10;100397.00;;;;5111214;28;20197;-77
2020/12/03 02:38:07;;;;;;;8.90;6.05;;;;;12.10;100392.00;;;;5108665;28;20194;-76
2020/12/03 02:40:34;;;;;;;11.00;6.55;;;;;12.10;100386.00;;;;5087300;28;20198;-76
2020/12/03 02:43:00;;;;;;;8.98;5.38;;;;;12.10;100382.00;;;;5098011;28;20761;-76
2020/12/03 02:45:27;;;;;;;11.48;6.85;;;;;12.10;100378.00;;;;5101689;28;20190;-76
2020/12/03 02:47:54;;;;;;;11.73;5.75;;;;;12.10;100373.00;;;;5089839;28;20225;-76
2020/12/03 02:50:21;;;;;;;11.13;6.55;;;;;12.10;100372.00;;;;5089107;28;20198;-76
2020/12/03 02:52:47;;;;;;;10.55;5.43;;;;;12.10;100372.00;;;;5100130;28;20205;-76
2020/12/03 02:55:15;;;;;;;8.85;5.57;;;;;12.10;100369.00;;;;5108576;28;20189;-77
2020/12/03 02:57:42;;;;;;;8.30;5.10;;;;;12.10;100362.00;;;;5093131;28;20221;-76
2020/12/03 03:00:08;;;;;;;10.00;5.25;;;;;12.10;100361.00;;;;5088785;28;20193;-76
2020/12/03 03:02:35;;;;;;;13.27;5.70;;;;;12.10;100360.00;;;;5100867;28;20204;-76
2020/12/03 03:05:02;;;;;;;10.02;5.75;;;;;12.10;100357.00;;;;5091129;28;20210;-76
2020/12/03 03:07:29;;;;;;;8.45;5.10;;;;;12.10;100355.00;;;;5096790;28;20692;-76
2020/12/03 03:09:55;;;;;;;7.28;4.15;;;;;12.10;100359.00;;;;5108780;28;20197;-76
2020/12/03 03:12:23;;;;;;;13.10;5.72;;;;;12.10;100347.00;;;;5108363;28;20190;-76
2020/12/03 03:14:53;;;;;;;7.20;4.38;;;;;12.20;100338.00;;;;5089263;28;20533;-76
2020/12/03 03:17:20;;;;;;;7.85;5.25;;;;;12.20;100335.00;;;;5093621;28;20217;-76
2020/12/03 03:19:46;;;;;;;11.75;5.60;;;;;12.20;100324.00;;;;5089232;28;20220;-75
2020/12/03 03:22:13;;;;;;;9.57;5.03;;;;;12.20;100335.00;;;;5097675;28;20248;-77
2020/12/03 03:24:40;;;;;;;11.23;5.30;;;;;12.20;100322.00;;;;5088875;28;20202;-76
2020/12/03 03:27:06;;;;;;;7.35;4.25;;;;;12.20;100315.00;;;;5099355;28;20225;-76
2020/12/03 03:29:34;;;;;;;7.90;4.38;;;;;12.20;100311.00;;;;5095828;28;20190;-76
2020/12/03 03:32:01;;;;;;;11.32;5.15;;;;;12.20;100311.00;;;;5106018;28;20782;-76
2020/12/03 03:34:28;;;;;;;12.05;4.80;;;;;12.20;100302.00;;;;5098543;28;20197;-76
2020/12/03 03:36:54;;;;;;;8.93;5.30;;;;;12.20;100296.00;;;;5110345;28;20742;-76
2020/12/03 03:39:23;;;;;;;8.27;4.68;;;;;12.20;100288.00;;;;5094754;28;20194;-76
2020/12/03 03:41:53;;;;;;;6.75;3.80;;;;;12.20;100288.00;;;;5090584;28;20241;-76
2020/12/03 03:44:20;;;;;;;11.60;4.90;;;;;12.20;100289.00;;;;5097651;28;20734;-75
2020/12/03 03:46:48;;;;;;;6.65;4.40;;;;;12.20;100297.00;;;;5108925;28;20915;-76
2020/12/03 03:49:15;;;;;;;7.53;4.13;;;;;12.10;100286.00;;;;5107391;28;20272;-76
2020/12/03 03:51:42;;;;;;;8.55;5.00;;;;;12.10;100289.00;;;;5089259;28;20555;-76
2020/12/03 03:54:09;;;;;;;8.38;3.97;;;;;12.10;100284.00;;;;5100288;28;20201;-76
2020/12/03 03:56:35;;;;;;;7.93;4.18;;;;;12.10;100281.00;;;;5093786;28;20206;-76
2020/12/03 03:59:02;;;;;;;7.95;4.00;;;;;12.10;100281.00;;;;5108995;28;20214;-76
2020/12/03 04:01:29;;;;;;;7.35;4.18;;;;;12.10;100281.00;;;;5092768;28;20549;-76
2020/12/03 04:03:56;;;;;;;6.85;3.67;;;;;12.10;100267.00;;;;5089041;28;20190;-76
2020/12/03 04:06:23;;;;;;;7.95;3.78;;;;;12.20;100274.00;;;;5107610;28;20198;-76
2020/12/03 04:08:50;;;;;;;8.07;4.70;;;;;12.20;100266.00;;;;5094173;28;20229;-76
2020/12/03 04:11:16;;;;;;;8.02;4.60;;;;;12.10;100256.00;;;;5089025;28;20202;-76
2020/12/03 04:13:44;;;;;;;10.13;5.07;;;;;12.20;100245.00;;;;5092837;28;20205;-76
2020/12/03 04:16:11;;;;;;;8.63;4.55;;;;;12.20;100238.00;;;;5089732;28;20268;-76
2020/12/03 04:18:38;;;;;;;6.75;4.45;;;;;12.20;100232.00;;;;5100222;28;20195;-76
2020/12/03 04:21:08;;;;;;;7.93;4.28;;;;;12.20;100223.00;;;;5086540;28;20197;-76
2020/12/03 04:23:35;;;;;;;7.38;4.00;;;;;12.20;100221.00;;;;5099828;28;20205;-76
2020/12/03 04:26:03;;;;;;;8.90;4.50;;;;;12.20;100211.00;;;;5092138;28;20237;-76
2020/12/03 04:28:30;;;;;;;8.93;4.85;;;;;12.20;100219.00;;;;5088599;28;20218;-76
2020/12/03 04:30:58;;;;;;;9.35;5.00;;;;;12.20;100211.00;;;;5088700;28;20190;-76
2020/12/03 04:33:25;;;;;;;6.57;3.78;;;;;12.20;100195.00;;;;5090379;28;20259;-76
2020/12/03 04:35:53;;;;;;;12.43;4.47;;;;;12.20;100178.00;;;;5096756;28;20209;-76
2020/12/03 04:38:20;;;;;;;11.65;4.53;;;;;12.20;100185.00;;;;5090055;28;20210;-76
2020/12/03 04:40:48;;;;;;;8.30;4.45;;;;;12.20;100187.00;;;;5088118;28;20202;-76
2020/12/03 04:43:24;;;;;;;11.70;5.28;;;;;12.20;100177.00;;;;5088581;28;20197;-76
2020/12/03 04:45:57;;;;;;;8.90;4.93;;;;;12.20;100171.00;;;;5102721;28;20196;-76
2020/12/03 04:48:54;;;;;;;11.57;5.13;;;;;12.20;100175.00;;;;5088859;28;20616;-76
2020/12/03 04:51:44;;;;;;;7.47;4.50;;;;;12.10;100163.00;;;;5073918;28;20622;-76
2020/12/03 04:54:28;;;;;;;9.52;5.13;;;;;12.10;100155.00;;;;5076550;28;20207;-76
2020/12/03 04:57:02;;;;;;;7.45;4.93;;;;;12.20;100150.00;;;;5088769;28;20222;-76
2020/12/03 04:59:50;;;;;;;7.90;5.13;;;;;12.10;100145.00;;;;5104363;28;20657;-76
2020/12/03 05:03:00;;;;;;;10.80;6.18;;;;;12.20;100147.00;;;;5070338;28;20205;-76
2020/12/03 05:05:33;;;;;;;12.23;6.53;;;;;12.20;100147.00;;;;5024899;28;20204;-76
2020/12/03 05:08:05;;;;;;;12.00;5.97;;;;;12.20;100142.00;;;;5087949;28;20221;-76
2020/12/03 05:10:40;;;;;;;8.50;5.57;;;;;12.20;100137.00;;;;5100439;28;20194;-76
2020/12/03 05:13:18;;;;;;;14.57;6.95;;;;;12.20;100139.00;;;;5084567;28;20202;-76
2020/12/03 05:15:47;;;;;;;8.80;6.22;;;;;12.30;100136.00;;;;5082611;28;20290;-76
2020/12/03 05:18:36;;;;;;;10.88;6.63;;;;;12.20;100135.00;;;;5089705;28;20206;-77
2020/12/03 05:21:03;;;;;;;9.25;5.90;;;;;12.30;100138.00;;;;5085069;28;20209;-76
2020/12/03 05:23:32;;;;;;;9.57;6.30;;;;;12.30;100138.00;;;;5101464;28;20194;-77
2020/12/03 05:26:01;;;;;;;9.23;5.88;;;;;12.30;100130.00;;;;5093786;28;20536;-76
2020/12/03 05:28:49;;;;;;;11.20;6.32;;;;;12.20;100129.00;;;;5087273;28;20224;-76
2020/12/03 05:31:22;;;;;;;11.45;6.68;;;;;12.30;100122.00;;;;5068091;28;20209;-77
2020/12/03 05:33:49;;;;;;;10.50;6.70;;;;;12.40;100123.00;;;;5087543;28;20205;-76
2020/12/03 05:36:25;;;;;;;10.43;7.25;;;;;12.40;100114.00;;;;5088161;28;20203;-76
2020/12/03 05:38:52;;;;;;;14.32;7.75;;;;;12.40;100102.00;;;;5095478;28;20288;-76
2020/12/03 05:41:23;;;;;;;10.05;6.75;;;;;12.40;100097.00;;;;5089917;28;20567;-76
2020/12/03 05:43:50;;;;;;;12.75;6.90;;;;;12.40;100092.00;;;;5102535;28;20204;-76
2020/12/03 05:46:19;;;;;;;13.30;6.75;;;;;12.40;100089.00;;;;5105932;28;20255;-77
2020/12/03 05:48:57;;;;;;;9.88;6.50;;;;;12.40;100081.00;;;;5101597;28;20221;-76
2020/12/03 05:51:26;;;;;;;10.15;6.78;;;;;12.40;100079.00;;;;5102418;28;20197;-76
2020/12/03 05:53:56;;;;;;;10.73;6.75;;;;;12.40;100078.00;;;;5089864;28;20663;-76
2020/12/03 05:56:26;;;;;;;13.85;7.68;;;;;12.40;100067.00;;;;5092193;28;20207;-76
2020/12/03 05:58:53;;;;;;;11.05;6.82;;;;;12.50;100064.00;;;;5088060;28;21000;-76
2020/12/03 06:01:22;;;;;;;16.75;7.65;;;;;12.50;100059.00;;;;5080974;28;20190;-76
2020/12/03 06:04:03;;;;;;;13.32;7.25;;;;;12.40;100049.00;;;;5106335;28;20675;-76
2020/12/03 06:07:02;;;;;;;12.95;8.02;;;;;12.40;100045.00;;;;5094971;28;20717;-76
2020/12/03 06:09:50;;;;;;;11.10;6.90;;;;;12.40;100037.00;;;;5104947;28;20676;-76
2020/12/03 06:12:31;;;;;;;10.57;6.90;;;;;12.40;100029.00;;;;5092071;28;20229;-76
2020/12/03 06:15:19;;;;;;;12.23;7.45;;;;;12.40;100020.00;;;;5089832;28;20198;-76
2020/12/03 06:18:30;;;;;;;10.88;7.20;;;;;12.40;100019.00;;;;5090478;28;20198;-76
2020/12/03 06:21:12;;;;;;;12.00;7.30;;;;;12.40;100018.00;;;;5008416;28;20200;-76
2020/12/03 06:23:59;;;;;;;9.77;6.25;;;;;12.40;100008.00;;;;5075576;28;20199;-76
2020/12/03 06:26:40;;;;;;;10.98;6.57;;;;;12.50;100004.00;;;;5089130;28;20202;-76
2020/12/03 06:29:35;;;;;;;11.45;7.43;;;;;12.40;99996.00;;;;5087753;28;20229;-76
2020/12/03 06:32:22;;;;;;;10.48;7.03;;;;;12.50;100006.00;;;;5093573;28;20232;-76
2020/12/03 06:34:57;;;;;;;10.27;7.82;;;;;12.50;99994.00;;;;5093265;28;20493;-76
2020/12/03 06:37:34;;;;;;;11.10;6.97;;;;;12.50;100000.00;;;;5089795;28;20205;-77
2020/12/03 06:40:06;;;;;;;10.65;7.38;;;;;12.60;99986.00;;;;5092845;28;20226;-76
2020/12/03 06:42:40;;;;;;;12.27;7.88;;;;;12.50;99986.00;;;;5090754;28;20198;-76
2020/12/03 06:45:28;;;;;;;10.63;7.32;;;;;12.50;99968.00;;;;5090495;28;20198;-76
2020/12/03 06:48:30;;;;;;;11.48;7.15;;;;;12.50;99968.00;;;;5090507;28;20236;-78
2020/12/03 06:51:29;;;;;;;15.45;8.38;;;;;12.50;99961.00;;;;5101413;28;20206;-77
2020/12/03 06:54:22;;;;;;;14.77;8.18;;;;;12.50;99965.00;;;;5110591;28;20205;-76
2020/12/03 06:57:42;;;;;;;10.70;6.32;;;;;12.50;99963.00;;;;5107605;28;20217;-78
2020/12/03 07:00:44;;;;;;;14.02;7.75;;;;;12.50;99968.00;;;;5070742;28;20211;-78
2020/12/03 07:03:47;;;;;;;13.60;7.72;;;;;12.50;99967.00;;;;5093776;28;20664;-77
2020/12/03 07:06:46;;;;;;;14.13;6.63;;;;;12.50;99965.00;;;;5095098;28;20198;-76
2020/12/03 07:09:47;;;;;;;9.00;6.03;;;;;12.50;99964.00;;;;5089594;28;20233;-76
2020/12/03 07:12:37;;;;;;;13.80;6.85;;;;;12.60;99964.00;;;;5091432;28;20197;-76
2020/12/03 07:15:39;;;;;;;12.95;7.60;;;;;12.50;99947.00;;;;5091155;28;21039;-76
2020/12/03 07:18:40;;;;;;;12.18;6.78;;;;;12.50;99948.00;;;;5090235;28;20294;-76
2020/12/03 07:21:48;;;;;;;9.30;6.60;;;;;12.50;99955.00;;;;5092684;28;20375;-76
2020/12/03 07:24:20;;;;;;;10.05;6.65;;;;;12.60;99953.00;;;;5091296;28;20210;-76
2020/12/03 07:27:23;;;;;;;10.98;6.85;;;;;12.60;99948.00;;;;5104130;28;20197;-76
2020/12/03 07:29:56;;;;;;;10.52;6.53;;;;;12.60;99941.00;;;;5109424;28;20197;-76
2020/12/03 07:32:47;;;;;;;10.30;6.15;;;;;12.50;99939.00;;;;5109855;28;20197;-76
2020/12/03 07:35:29;;;;;;;11.48;6.88;;;;;12.60;99941.00;;;;5081968;28;20683;-76
2020/12/03 07:38:06;;;;;;;9.18;6.35;;;;;12.60;99931.00;;;;5094340;28;20214;-75
2020/12/03 07:40:33;;;;;;;10.95;6.93;;;;;12.60;99923.00;;;;5089978;28;20200;-76
2020/12/03 07:43:02;;;;;;;12.40;6.45;;;;;12.70;99925.00;;;;5099345;28;20202;-76
2020/12/03 07:45:37;;;;;;;10.80;5.90;;;;;12.60;99921.00;;;;5092815;28;20209;-75
2020/12/03 07:48:16;;;;;;;13.38;6.97;;;;;12.60;99917.00;;;;5089568;28;20594;-76
2020/12/03 07:50:47;;;;;;;12.38;7.07;;;;;12.60;99913.00;;;;5098177;28;20197;-76
2020/12/03 07:53:22;;;;;;;11.25;6.32;;;;;12.60;99903.00;;;;5084001;28;20212;-76
2020/12/03 07:55:49;;;;;;;11.45;7.63;;;;;12.60;99893.00;;;;5089487;28;20198;-76
2020/12/03 07:58:32;;;;;;;13.65;6.88;;;;;12.60;99891.00;;;;5089622;28;20237;-76
2020/12/03 08:00:59;;;;;;;12.48;6.25;;;;;12.60;99885.00;;;;5093433;28;20186;-75
2020/12/03 08:03:48;;;;;;;10.95;6.25;;;;;12.60;99898.00;;;;5090990;28;20218;-76
2020/12/03 08:06:21;;;;;;;13.80;6.70;;;;;12.70;99899.00;;;;5104557;27;20242;-76
2020/12/03 08:08:50;;;;;;;11.95;6.25;;;;;12.70;99891.00;;;;5089384;28;20225;-76
2020/12/03 08:11:40;;;;;;;9.45;6.65;;;;;12.60;99900.00;;;;5090085;28;20571;-76
2020/12/03 08:14:36;;;;;;;9.85;6.38;;;;;12.60;99895.00;;;;5085536;28;20195;-76
2020/12/03 08:17:06;;;;;;;9.23;6.75;;;;;12.70;99882.00;;;;5100609;28;20202;-76
2020/12/03 08:19:36;;;;;;;11.30;7.25;;;;;12.70;99880.00;;;;5105049;28;20206;-76
2020/12/03 08:22:04;;;;;;;8.15;5.65;;;;;12.70;99877.00;;;;5100065;28;20220;-76
2020/12/03 08:24:33;;;;;;;8.70;5.72;;;;;12.70;99877.00;;;;5093024;28;20202;-76
2020/12/03 08:27:01;;;;;;;11.25;6.03;;;;;12.70;99869.00;;;;5090672;28;20206;-75
2020/12/03 08:29:45;;;;;;;10.35;6.13;;;;;12.70;99872.00;;;;5097466;28;20643;-76
2020/12/03 08:32:11;;;;;;;9.95;6.13;;;;;12.70;99867.00;;;;5096025;28;20190;-76
2020/12/03 08:34:40;;;;;;;12.73;6.85;;;;;12.70;99854.00;;;;5105617;28;20659;-76
2020/12/03 08:37:12;;;;;;;12.38;7.45;;;;;12.80;99861.00;;;;5090191;28;20205;-77
2020/12/03 08:39:42;;;;;;;10.88;6.43;;;;;12.80;99867.00;;;;5089900;28;20285;-76
2020/12/03 08:42:11;;;;;;;11.95;6.25;;;;;12.70;99869.00;;;;5092238;28;20199;-77
2020/12/03 08:44:39;;;;;;;17.13;6.55;;;;;12.70;99851.00;;;;5100811;28;20193;-76
2020/12/03 08:47:10;;;;;;;9.02;6.47;;;;;12.70;99852.00;;;;5089683;28;20202;-76
2020/12/03 08:49:42;;;;;;;9.57;6.53;;;;;12.60;99855.00;;;;5090077;28;20218;-76
2020/12/03 08:52:09;;;;;;;10.98;6.43;;;;;12.70;99855.00;;;;5105932;28;20546;-76
2020/12/03 08:54:36;;;;;;;9.45;6.13;;;;;12.70;99859.00;;;;5095443;28;20202;-76
2020/12/03 08:57:08;;;;;;;11.52;5.85;;;;;12.70;99845.00;;;;5101023;28;20209;-76
2020/12/03 08:59:39;;;;;;;9.95;6.00;;;;;12.60;99855.00;;;;5100373;28;20205;-78
2020/12/03 09:02:10;;;;;;;13.10;6.35;;;;;12.60;99856.00;;;;5097633;28;20206;-77
2020/12/03 09:04:39;;;;;;;8.77;5.60;;;;;12.70;99846.00;;;;5096317;28;20206;-76
2020/12/03 09:07:09;;;;;;;9.32;6.25;;;;;12.60;99839.00;;;;5088347;28;20213;-76
2020/12/03 09:09:38;;;;;;;9.07;6.18;;;;;12.70;99829.00;;;;5088769;28;20222;-76
2020/12/03 09:12:07;;;;;;;9.63;6.85;;;;;12.70;99843.00;;;;5086922;28;20261;-76
2020/12/03 09:14:36;;;;;;;8.90;5.43;;;;;12.70;99827.00;;;;5092368;28;20197;-76
2020/12/03 09:17:05;;;;;;;9.80;6.18;;;;;12.70;99826.00;;;;5089061;28;20214;-76
2020/12/03 09:19:32;;;;;;;11.40;6.10;;;;;12.70;99823.00;;;;5078953;28;20194;-76
2020/12/03 09:22:00;;;;;;;9.57;6.45;;;;;12.70;99808.00;;;;5081549;28;20206;-75
2020/12/03 09:24:28;;;;;;;8.68;5.45;;;;;12.60;99801.00;;;;5088259;28;20201;-75
2020/12/03 09:27:01;;;;;;;11.95;6.70;;;;;12.60;99799.00;;;;5088818;28;20605;-75
2020/12/03 09:29:28;;;;;;;12.55;6.03;;;;;12.60;99790.00;;;;5102567;28;20308;-76
2020/12/03 09:31:59;;;;;;;8.63;6.25;;;;;12.60;99775.00;;;;5101223;28;20651;-76
2020/12/03 09:34:29;;;;;;;10.23;6.63;;;;;12.70;99764.00;;;;5107261;28;20934;-76
2020/12/03 09:36:57;;;;;;;11.07;5.55;;;;;12.70;99748.00;;;;5096817;28;20279;-75
2020/12/03 09:39:26;;;;;;;7.97;5.63;;;;;12.70;99750.00;;;;5101454;28;20563;-75
2020/12/03 09:41:54;;;;;;;9.57;6.07;;;;;12.70;99744.00;;;;5088197;28;20676;-75
2020/12/03 09:44:22;;;;;;;8.20;5.22;;;;;12.70;99730.00;;;;5087609;28;20202;-75
2020/12/03 09:46:51;;;;;;;8.25;4.93;;;;;12.70;99724.00;;;;5087582;28;20213;-76
2020/12/03 09:49:18;;;;;;;8.60;5.47;;;;;12.70;99721.00;;;;5104971;28;20221;-76
2020/12/03 09:51:45;;;;;;;9.25;5.53;;;;;12.80;99718.00;;;;5098062;28;20198;-76
2020/12/03 09:54:13;;;;;;;10.45;6.20;;;;;12.80;99717.00;;;;5089761;28;20206;-75
2020/12/03 09:56:40;;;;;;;10.55;5.60;;;;;12.80;99714.00;;;;5106253;28;20225;-75
2020/12/03 09:59:12;;;;;;;9.98;5.45;;;;;12.80;99706.00;;;;5095253;28;20248;-76
2020/12/03 10:01:57;;;;;;;9.15;6.13;;;;;12.70;99700.00;;;;5094455;28;20796;-76
2020/12/03 10:05:00;;;;;;;5.30;4.07;;;;;12.70;99701.00;;;;5089187;28;20194;-76
2020/12/03 10:07:56;;;;;;;11.05;5.35;;;;;12.70;99696.00;;;;5100649;28;20197;-76
2020/12/03 10:10:30;;;;;;;10.40;5.75;;;;;12.70;99686.00;;;;5086146;28;20202;-75
2020/12/03 10:13:24;;;;;;;8.63;5.63;;;;;12.70;99686.00;;;;5087683;28;20194;-76
2020/12/03 10:16:02;;;;;;;6.82;4.68;;;;;12.70;99682.00;;;;5091610;28;20197;-75
2020/12/03 10:18:43;;;;;;;8.25;4.93;;;;;12.70;99668.00;;;;5093807;28;20200;-75
2020/12/03 10:21:14;;;;;;;9.02;5.13;;;;;12.70;99660.00;;;;5090966;28;20198;-76
2020/12/03 10:23:47;;;;;;;8.25;4.97;;;;;12.70;99660.00;;;;5098880;28;20193;-76
2020/12/03 10:26:32;;;;;;;9.38;5.13;;;;;12.70;99652.00;;;;5090049;28;20190;-76
2020/12/03 10:29:21;;;;;;;7.70;4.38;;;;;12.70;99646.00;;;;5106119;28;20233;-76
2020/12/03 10:31:50;;;;;;;8.68;5.40;;;;;12.80;99636.00;;;;5109630;28;20193;-76
2020/12/03 10:34:18;;;;;;;11.30;4.75;;;;;12.80;99642.00;;;;5104602;28;20651;-76
2020/12/03 10:36:51;;;;;;;7.13;5.03;;;;;12.70;99629.00;;;;5091297;28;20664;-77
2020/12/03 10:39:19;;;;;;;11.60;5.68;;;;;12.80;99629.00;;;;5101657;28;20624;-76
2020/12/03 10:41:52;;;;;;;9.85;6.25;;;;;12.80;99629.00;;;;5091428;28;20206;-76
2020/12/03 10:44:24;;;;;;;9.18;6.28;;;;;12.80;99630.00;;;;5090584;28;20206;-75
2020/12/03 10:46:55;;;;;;;10.82;6.32;;;;;12.80;99634.00;;;;5090713;28;20197;-76
2020/12/03 10:49:25;;;;;;;11.88;6.13;;;;;12.80;99625.00;;;;5090411;28;20227;-75
2020/12/03 10:51:53;;;;;;;10.05;5.68;;;;;12.80;99622.00;;;;5090722;28;20194;-75
2020/12/03 10:54:20;;;;;;;9.45;5.25;;;;;12.80;99622.00;;;;5105572;28;20229;-75
2020/12/03 10:56:50;;;;;;;10.15;6.40;;;;;12.80;99615.00;;;;5102765;28;20205;-75
2020/12/03 10:59:38;;;;;;;8.23;5.25;;;;;12.80;99602.00;;;;5064548;28;20566;-75
2020/12/03 11:02:11;;;;;;;11.60;6.95;;;;;12.80;99607.00;;;;5042930;28;20318;-75
2020/12/03 11:04:39;;;;;;;7.88;5.20;;;;;12.80;99600.00;;;;5052897;28;20319;-75
2020/12/03 11:07:12;;;;;;;7.07;5.35;;;;;12.80;99597.00;;;;5049901;28;20199;-75
2020/12/03 11:09:40;;;;;;;10.15;6.13;;;;;12.90;99590.00;;;;5050321;28;20231;-75
2020/12/03 11:12:11;;;;;;;11.18;5.07;;;;;12.80;99580.00;;;;5051173;28;20191;-75
2020/12/03 11:14:39;;;;;;;7.78;5.20;;;;;12.90;99582.00;;;;5067957;28;20326;-75
2020/12/03 11:17:37;;;;;;;8.35;5.85;;;;;12.80;99564.00;;;;5051027;28;20290;-75
2020/12/03 11:20:05;;;;;;;9.52;5.00;;;;;12.90;99568.00;;;;5049402;28;20783;-76
2020/12/03 11:23:00;;;;;;;6.85;4.28;;;;;12.80;99567.00;;;;5048795;28;20198;-75
2020/12/03 11:25:29;;;;;;;9.80;5.53;;;;;12.90;99550.00;;;;5055640;28;20705;-75
2020/12/03 11:28:00;;;;;;;10.05;5.53;;;;;12.90;99544.00;;;;5034717;28;20756;-75
2020/12/03 11:30:28;;;;;;;10.10;5.38;;;;;12.90;99530.00;;;;5057811;28;20195;-76
2020/12/03 11:32:56;;;;;;;8.50;5.70;;;;;12.80;99531.00;;;;5049284;28;20246;-75
2020/12/03 11:35:25;;;;;;;9.00;5.38;;;;;12.80;99519.00;;;;5051308;28;20200;-77
2020/12/03 11:37:53;;;;;;;11.05;6.38;;;;;12.80;99520.00;;;;5054024;28;20203;-75
2020/12/03 11:40:32;;;;;;;9.88;6.45;;;;;12.80;99514.00;;;;5048743;28;20207;-75
2020/12/03 11:43:13;;;;;;;8.93;5.45;;;;;12.80;99503.00;;;;5049169;28;20295;-75
2020/12/03 11:46:04;;;;;;;9.90;5.97;;;;;12.80;99497.00;;;;5058837;28;20285;-75
2020/12/03 11:48:37;;;;;;;7.43;5.38;;;;;12.80;99488.00;;;;5066082;28;20218;-75
2020/12/03 11:51:05;;;;;;;10.48;6.78;;;;;12.80;99487.00;;;;5052135;28;20720;-75
2020/12/03 11:53:32;;;;;;;11.35;6.35;;;;;12.80;99491.00;;;;5047304;28;20200;-75
2020/12/03 11:55:59;;;;;;;11.73;7.05;;;;;12.80;99476.00;;;;5028568;28;21011;-75
2020/12/03 11:58:30;;;;;;;9.10;5.70;;;;;12.80;99473.00;;;;5075518;28;20229;-76
2020/12/03 12:01:10;;;;;;;8.38;5.60;;;;;12.80;99462.00;;;;5095429;28;20205;-75
2020/12/03 12:03:39;;;;;;;8.02;5.45;;;;;12.90;99460.00;;;;5079427;28;20209;-75
2020/12/03 12:06:13;;;;;;;12.10;6.65;;;;;12.80;99454.00;;;;5091073;28;20200;-75
2020/12/03 12:08:44;;;;;;;10.48;5.63;;;;;12.90;99439.00;;;;5090203;28;20221;-75
2020/12/03 12:11:15;;;;;;;7.85;5.53;;;;;12.90;99439.00;;;;5084571;28;20190;-75
2020/12/03 12:13:42;;;;;;;8.52;5.60;;;;;12.90;99437.00;;;;5107218;28;20193;-75
2020/12/03 12:16:12;;;;;;;9.07;5.80;;;;;12.80;99422.00;;;;5108410;28;20190;-75
2020/12/03 12:18:39;;;;;;;10.63;5.45;;;;;12.90;99419.00;;;;5101902;28;20690;-75
2020/12/03 12:21:08;;;;;;;8.10;5.78;;;;;12.90;99407.00;;;;5095164;28;20194;-75
2020/12/03 12:23:35;;;;;;;9.25;4.78;;;;;12.90;99406.00;;;;5107252;28;20193;-75
2020/12/03 12:26:02;;;;;;;9.15;5.15;;;;;12.90;99399.00;;;;5101404;28;20221;-76
2020/12/03 12:28:28;;;;;;;7.88;5.30;;;;;12.90;99398.00;;;;5080198;28;20217;-76
2020/12/03 12:30:55;;;;;;;6.70;4.88;;;;;12.90;99394.00;;;;5093963;28;20589;-75
2020/12/03 12:33:22;;;;;;;7.45;4.70;;;;;12.90;99379.00;;;;5094325;28;20205;-76
2020/12/03 12:35:48;;;;;;;5.82;4.53;;;;;12.90;99379.00;;;;5088333;28;20217;-76